sensor_id;sensor_type;location;lat;lon;timestamp;P1;durP1;ratioP1;P2;durP2;ratioP2
64022;SDS011;50264;52.088;5.296;2022-10-30T00:00:52;14.2;;;8.5;;
64022;SDS011;50264;52.088;5.296;2022-10-30T00:04:04;15.4;;;8.71;;
64022;SDS011;50264;52.088;5.296;2022-10-30T00:05:42;25.3;;;9.0;;
64022;SDS011;50264;52.088;5.296;2022-10-30T00:07:21;16.11;;;9.21;;
64022;SDS011;50264;52.088;5.296;2022-10-30T00:10:33;16.9;;;8.31;;
64022;SDS011;50264;52.088;5.296;2022-10-30T00:12:09;16.3;;;8.9;;
64022;SDS011;50264;52.088;5.296;2022-10-30T00:13:45;18.5;;;9.31;;
64022;SDS011;50264;52.088;5.296;2022-10-30T00:15:21;13.0;;;8.5;;
64022;SDS011;50264;52.088;5.296;2022-10-30T00:18:34;21.4;;;8.2;;
64022;SDS011;50264;52.088;5.296;2022-10-30T00:20:11;17.0;;;8.9;;
64022;SDS011;50264;52.088;5.296;2022-10-30T00:21:47;16.4;;;9.21;;
64022;SDS011;50264;52.088;5.296;2022-10-30T00:24:59;11.4;;;7.9;;
64022;SDS011;50264;52.088;5.296;2022-10-30T00:26:35;23.0;;;8.6;;
64022;SDS011;50264;52.088;5.296;2022-10-30T00:28:11;21.5;;;8.5;;
64022;SDS011;50264;52.088;5.296;2022-10-30T00:31:24;16.61;;;8.5;;
64022;SDS011;50264;52.088;5.296;2022-10-30T00:33:00;15.8;;;8.6;;
64022;SDS011;50264;52.088;5.296;2022-10-30T00:34:37;14.8;;;8.5;;
64022;SDS011;50264;52.088;5.296;2022-10-30T00:36:13;19.41;;;8.31;;
64022;SDS011;50264;52.088;5.296;2022-10-30T00:39:25;20.8;;;8.71;;
64022;SDS011;50264;52.088;5.296;2022-10-30T00:41:01;21.2;;;8.0;;
64022;SDS011;50264;52.088;5.296;2022-10-30T00:42:39;12.4;;;7.4;;
64022;SDS011;50264;52.088;5.296;2022-10-30T00:46:14;17.91;;;7.9;;
64022;SDS011;50264;52.088;5.296;2022-10-30T00:47:56;16.7;;;7.7;;
64022;SDS011;50264;52.088;5.296;2022-10-30T00:49:38;16.61;;;8.81;;
64022;SDS011;50264;52.088;5.296;2022-10-30T00:51:28;15.5;;;7.6;;
64022;SDS011;50264;52.088;5.296;2022-10-30T00:53:08;20.0;;;9.1;;
64022;SDS011;50264;52.088;5.296;2022-10-30T00:56:27;17.0;;;8.2;;
64022;SDS011;50264;52.088;5.296;2022-10-30T00:58:08;17.7;;;8.4;;
64022;SDS011;50264;52.088;5.296;2022-10-30T00:59:48;16.9;;;8.31;;
64022;SDS011;50264;52.088;5.296;2022-10-30T01:01:25;17.0;;;8.81;;
64022;SDS011;50264;52.088;5.296;2022-10-30T01:04:44;14.0;;;8.9;;
64022;SDS011;50264;52.088;5.296;2022-10-30T01:06:24;16.2;;;8.5;;
64022;SDS011;50264;52.088;5.296;2022-10-30T01:08:03;24.1;;;9.6;;
64022;SDS011;50264;52.088;5.296;2022-10-30T01:12:53;22.3;;;9.6;;
64022;SDS011;50264;52.088;5.296;2022-10-30T01:14:33;18.8;;;8.9;;
64022;SDS011;50264;52.088;5.296;2022-10-30T01:16:18;16.0;;;7.7;;
64022;SDS011;50264;52.088;5.296;2022-10-30T01:18:15;23.4;;;8.9;;
64022;SDS011;50264;52.088;5.296;2022-10-30T01:23:18;23.3;;;8.2;;
64022;SDS011;50264;52.088;5.296;2022-10-30T01:25:12;18.2;;;8.0;;
64022;SDS011;50264;52.088;5.296;2022-10-30T01:27:08;16.0;;;8.0;;
64022;SDS011;50264;52.088;5.296;2022-10-30T01:29:02;14.5;;;8.31;;
64022;SDS011;50264;52.088;5.296;2022-10-30T01:30:51;16.4;;;8.0;;
64022;SDS011;50264;52.088;5.296;2022-10-30T01:34:32;16.61;;;7.9;;
64022;SDS011;50264;52.088;5.296;2022-10-30T01:36:22;17.91;;;8.4;;
64022;SDS011;50264;52.088;5.296;2022-10-30T01:38:06;12.7;;;7.4;;
64022;SDS011;50264;52.088;5.296;2022-10-30T01:39:50;15.3;;;7.9;;
64022;SDS011;50264;52.088;5.296;2022-10-30T01:41:27;19.2;;;8.0;;
64022;SDS011;50264;52.088;5.296;2022-10-30T01:44:39;16.2;;;8.2;;
64022;SDS011;50264;52.088;5.296;2022-10-30T01:46:20;17.8;;;8.71;;
64022;SDS011;50264;52.088;5.296;2022-10-30T01:48:20;14.7;;;8.1;;
64022;SDS011;50264;52.088;5.296;2022-10-30T01:50:30;17.8;;;7.1;;
64022;SDS011;50264;52.088;5.296;2022-10-30T01:52:16;20.11;;;7.4;;
64022;SDS011;50264;52.088;5.296;2022-10-30T01:53:59;19.2;;;8.4;;
64022;SDS011;50264;52.088;5.296;2022-10-30T01:55:47;21.4;;;8.2;;
64022;SDS011;50264;52.088;5.296;2022-10-30T01:59:15;18.7;;;8.1;;
64022;SDS011;50264;52.088;5.296;2022-10-30T02:00:58;13.2;;;7.7;;
64022;SDS011;50264;52.088;5.296;2022-10-30T02:02:35;14.5;;;7.6;;
64022;SDS011;50264;52.088;5.296;2022-10-30T02:04:12;11.9;;;6.8;;
64022;SDS011;50264;52.088;5.296;2022-10-30T02:07:27;18.91;;;7.7;;
64022;SDS011;50264;52.088;5.296;2022-10-30T02:09:03;17.7;;;8.0;;
64022;SDS011;50264;52.088;5.296;2022-10-30T02:10:41;19.8;;;8.1;;
64022;SDS011;50264;52.088;5.296;2022-10-30T02:13:59;11.9;;;7.3;;
64022;SDS011;50264;52.088;5.296;2022-10-30T02:15:40;16.0;;;7.3;;
64022;SDS011;50264;52.088;5.296;2022-10-30T02:17:18;24.5;;;8.5;;
64022;SDS011;50264;52.088;5.296;2022-10-30T02:18:55;16.5;;;7.6;;
64022;SDS011;50264;52.088;5.296;2022-10-30T02:22:08;17.2;;;8.0;;
64022;SDS011;50264;52.088;5.296;2022-10-30T02:23:45;19.11;;;7.9;;
64022;SDS011;50264;52.088;5.296;2022-10-30T02:25:23;20.9;;;8.31;;
64022;SDS011;50264;52.088;5.296;2022-10-30T02:28:36;16.5;;;8.9;;
64022;SDS011;50264;52.088;5.296;2022-10-30T02:30:12;16.5;;;9.21;;
64022;SDS011;50264;52.088;5.296;2022-10-30T02:31:49;18.7;;;8.9;;
64022;SDS011;50264;52.088;5.296;2022-10-30T02:33:25;16.3;;;8.4;;
64022;SDS011;50264;52.088;5.296;2022-10-30T02:36:40;19.41;;;9.0;;
64022;SDS011;50264;52.088;5.296;2022-10-30T02:38:18;15.1;;;8.5;;
64022;SDS011;50264;52.088;5.296;2022-10-30T02:39:54;21.6;;;8.4;;
64022;SDS011;50264;52.088;5.296;2022-10-30T02:43:06;21.4;;;8.9;;
64022;SDS011;50264;52.088;5.296;2022-10-30T02:44:42;17.8;;;8.81;;
64022;SDS011;50264;52.088;5.296;2022-10-30T02:46:18;12.7;;;8.5;;
64022;SDS011;50264;52.088;5.296;2022-10-30T02:49:33;14.8;;;8.4;;
64022;SDS011;50264;52.088;5.296;2022-10-30T02:51:11;18.0;;;7.9;;
64022;SDS011;50264;52.088;5.296;2022-10-30T02:52:48;15.1;;;7.7;;
64022;SDS011;50264;52.088;5.296;2022-10-30T02:54:25;20.9;;;8.81;;
64022;SDS011;50264;52.088;5.296;2022-10-30T02:57:39;14.3;;;7.6;;
64022;SDS011;50264;52.088;5.296;2022-10-30T02:59:16;17.41;;;8.31;;
64022;SDS011;50264;52.088;5.296;2022-10-30T03:00:52;17.7;;;8.5;;
64022;SDS011;50264;52.088;5.296;2022-10-30T03:04:05;20.5;;;8.6;;
64022;SDS011;50264;52.088;5.296;2022-10-30T03:05:42;18.8;;;7.4;;
64022;SDS011;50264;52.088;5.296;2022-10-30T03:07:18;12.2;;;7.9;;
64022;SDS011;50264;52.088;5.296;2022-10-30T03:10:30;13.0;;;7.9;;
64022;SDS011;50264;52.088;5.296;2022-10-30T03:12:06;18.41;;;6.6;;
64022;SDS011;50264;52.088;5.296;2022-10-30T03:13:43;19.61;;;8.31;;
64022;SDS011;50264;52.088;5.296;2022-10-30T03:15:21;13.6;;;8.31;;
64022;SDS011;50264;52.088;5.296;2022-10-30T03:18:34;18.3;;;8.0;;
64022;SDS011;50264;52.088;5.296;2022-10-30T03:20:11;18.3;;;8.0;;
64022;SDS011;50264;52.088;5.296;2022-10-30T03:21:48;15.5;;;8.1;;
64022;SDS011;50264;52.088;5.296;2022-10-30T03:25:01;17.41;;;8.4;;
64022;SDS011;50264;52.088;5.296;2022-10-30T03:26:38;16.11;;;8.71;;
64022;SDS011;50264;52.088;5.296;2022-10-30T03:28:15;18.11;;;9.0;;
64022;SDS011;50264;52.088;5.296;2022-10-30T03:29:53;14.7;;;8.81;;
64022;SDS011;50264;52.088;5.296;2022-10-30T03:33:06;23.1;;;7.9;;
64022;SDS011;50264;52.088;5.296;2022-10-30T03:34:42;18.0;;;8.9;;
64022;SDS011;50264;52.088;5.296;2022-10-30T03:36:18;17.8;;;8.4;;
64022;SDS011;50264;52.088;5.296;2022-10-30T03:39:30;16.11;;;8.31;;
64022;SDS011;50264;52.088;5.296;2022-10-30T03:41:07;14.6;;;7.6;;
64022;SDS011;50264;52.088;5.296;2022-10-30T03:42:44;16.11;;;8.0;;
64022;SDS011;50264;52.088;5.296;2022-10-30T03:45:57;19.2;;;7.5;;
64022;SDS011;50264;52.088;5.296;2022-10-30T03:47:34;14.2;;;7.6;;
64022;SDS011;50264;52.088;5.296;2022-10-30T03:49:14;12.7;;;7.4;;
64022;SDS011;50264;52.088;5.296;2022-10-30T03:50:51;22.0;;;8.71;;
64022;SDS011;50264;52.088;5.296;2022-10-30T03:54:04;23.3;;;8.1;;
64022;SDS011;50264;52.088;5.296;2022-10-30T03:55:40;17.11;;;8.6;;
64022;SDS011;50264;52.088;5.296;2022-10-30T03:57:17;17.2;;;8.1;;
64022;SDS011;50264;52.088;5.296;2022-10-30T04:00:29;16.61;;;8.2;;
64022;SDS011;50264;52.088;5.296;2022-10-30T04:02:06;15.6;;;8.5;;
64022;SDS011;50264;52.088;5.296;2022-10-30T04:03:43;21.3;;;9.21;;
64022;SDS011;50264;52.088;5.296;2022-10-30T04:06:58;17.2;;;8.1;;
64022;SDS011;50264;52.088;5.296;2022-10-30T04:08:35;21.7;;;7.7;;
64022;SDS011;50264;52.088;5.296;2022-10-30T04:10:11;18.91;;;8.0;;
64022;SDS011;50264;52.088;5.296;2022-10-30T04:11:49;16.0;;;8.4;;
64022;SDS011;50264;52.088;5.296;2022-10-30T04:15:01;14.5;;;7.5;;
64022;SDS011;50264;52.088;5.296;2022-10-30T04:16:38;25.3;;;8.9;;
64022;SDS011;50264;52.088;5.296;2022-10-30T04:18:15;15.2;;;8.4;;
64022;SDS011;50264;52.088;5.296;2022-10-30T04:21:29;10.7;;;7.0;;
64022;SDS011;50264;52.088;5.296;2022-10-30T04:23:06;15.7;;;7.7;;
64022;SDS011;50264;52.088;5.296;2022-10-30T04:24:48;21.3;;;8.31;;
64022;SDS011;50264;52.088;5.296;2022-10-30T04:26:25;13.7;;;7.9;;
64022;SDS011;50264;52.088;5.296;2022-10-30T04:29:41;20.7;;;7.5;;
64022;SDS011;50264;52.088;5.296;2022-10-30T04:31:17;14.7;;;6.8;;
64022;SDS011;50264;52.088;5.296;2022-10-30T04:32:54;18.0;;;8.2;;
64022;SDS011;50264;52.088;5.296;2022-10-30T04:36:09;12.6;;;7.5;;
64022;SDS011;50264;52.088;5.296;2022-10-30T04:37:50;20.3;;;8.9;;
64022;SDS011;50264;52.088;5.296;2022-10-30T04:39:28;16.2;;;8.1;;
64022;SDS011;50264;52.088;5.296;2022-10-30T04:41:05;14.2;;;7.6;;
64022;SDS011;50264;52.088;5.296;2022-10-30T04:44:21;16.11;;;8.6;;
64022;SDS011;50264;52.088;5.296;2022-10-30T04:45:57;22.2;;;9.0;;
64022;SDS011;50264;52.088;5.296;2022-10-30T04:47:33;16.5;;;8.2;;
64022;SDS011;50264;52.088;5.296;2022-10-30T04:50:46;16.4;;;8.0;;
64022;SDS011;50264;52.088;5.296;2022-10-30T04:52:22;16.8;;;8.1;;
64022;SDS011;50264;52.088;5.296;2022-10-30T04:53:59;17.41;;;7.5;;
64022;SDS011;50264;52.088;5.296;2022-10-30T04:57:11;15.8;;;8.2;;
64022;SDS011;50264;52.088;5.296;2022-10-30T04:58:48;13.8;;;8.71;;
64022;SDS011;50264;52.088;5.296;2022-10-30T05:00:24;15.6;;;8.2;;
64022;SDS011;50264;52.088;5.296;2022-10-30T05:02:02;16.7;;;7.3;;
64022;SDS011;50264;52.088;5.296;2022-10-30T05:05:14;16.9;;;8.4;;
64022;SDS011;50264;52.088;5.296;2022-10-30T05:06:51;14.1;;;8.1;;
64022;SDS011;50264;52.088;5.296;2022-10-30T05:08:28;16.9;;;8.2;;
64022;SDS011;50264;52.088;5.296;2022-10-30T05:11:46;18.0;;;8.2;;
64022;SDS011;50264;52.088;5.296;2022-10-30T05:13:22;13.0;;;7.8;;
64022;SDS011;50264;52.088;5.296;2022-10-30T05:14:59;16.5;;;8.9;;
64022;SDS011;50264;52.088;5.296;2022-10-30T05:16:35;13.0;;;9.31;;
64022;SDS011;50264;52.088;5.296;2022-10-30T05:19:49;24.0;;;9.1;;
64022;SDS011;50264;52.088;5.296;2022-10-30T05:21:25;15.2;;;8.4;;
64022;SDS011;50264;52.088;5.296;2022-10-30T05:23:01;18.2;;;7.5;;
64022;SDS011;50264;52.088;5.296;2022-10-30T05:26:14;15.5;;;8.81;;
64022;SDS011;50264;52.088;5.296;2022-10-30T05:27:56;23.6;;;8.5;;
64022;SDS011;50264;52.088;5.296;2022-10-30T05:29:33;18.7;;;8.5;;
64022;SDS011;50264;52.088;5.296;2022-10-30T05:32:45;24.9;;;9.31;;
64022;SDS011;50264;52.088;5.296;2022-10-30T05:34:21;18.41;;;9.0;;
64022;SDS011;50264;52.088;5.296;2022-10-30T05:35:58;14.7;;;8.6;;
64022;SDS011;50264;52.088;5.296;2022-10-30T05:37:34;14.7;;;8.4;;
64022;SDS011;50264;52.088;5.296;2022-10-30T05:40:46;16.0;;;8.0;;
64022;SDS011;50264;52.088;5.296;2022-10-30T05:42:23;12.9;;;7.7;;
64022;SDS011;50264;52.088;5.296;2022-10-30T05:43:59;19.0;;;8.6;;
64022;SDS011;50264;52.088;5.296;2022-10-30T05:47:13;16.2;;;8.5;;
64022;SDS011;50264;52.088;5.296;2022-10-30T05:48:49;17.0;;;9.1;;
64022;SDS011;50264;52.088;5.296;2022-10-30T05:50:25;18.11;;;8.81;;
64022;SDS011;50264;52.088;5.296;2022-10-30T05:53:39;21.1;;;9.81;;
64022;SDS011;50264;52.088;5.296;2022-10-30T05:55:15;18.5;;;9.5;;
64022;SDS011;50264;52.088;5.296;2022-10-30T05:56:52;20.0;;;9.9;;
64022;SDS011;50264;52.088;5.296;2022-10-30T05:58:28;19.41;;;9.4;;
64022;SDS011;50264;52.088;5.296;2022-10-30T06:01:43;22.3;;;10.0;;
64022;SDS011;50264;52.088;5.296;2022-10-30T06:03:20;17.3;;;9.5;;
64022;SDS011;50264;52.088;5.296;2022-10-30T06:04:56;19.61;;;10.6;;
64022;SDS011;50264;52.088;5.296;2022-10-30T06:08:09;20.7;;;9.1;;
64022;SDS011;50264;52.088;5.296;2022-10-30T06:09:46;16.7;;;10.21;;
64022;SDS011;50264;52.088;5.296;2022-10-30T06:11:22;17.3;;;11.4;;
64022;SDS011;50264;52.088;5.296;2022-10-30T06:14:37;22.8;;;10.0;;
64022;SDS011;50264;52.088;5.296;2022-10-30T06:16:14;19.5;;;10.6;;
64022;SDS011;50264;52.088;5.296;2022-10-30T06:17:50;23.8;;;10.3;;
64022;SDS011;50264;52.088;5.296;2022-10-30T06:19:27;14.6;;;8.9;;
64022;SDS011;50264;52.088;5.296;2022-10-30T06:22:40;16.7;;;9.0;;
64022;SDS011;50264;52.088;5.296;2022-10-30T06:24:17;21.3;;;8.1;;
64022;SDS011;50264;52.088;5.296;2022-10-30T06:25:53;18.91;;;8.4;;
64022;SDS011;50264;52.088;5.296;2022-10-30T06:29:10;19.91;;;9.0;;
64022;SDS011;50264;52.088;5.296;2022-10-30T06:30:46;20.0;;;8.2;;
64022;SDS011;50264;52.088;5.296;2022-10-30T06:32:22;18.8;;;8.71;;
64022;SDS011;50264;52.088;5.296;2022-10-30T06:33:58;16.5;;;9.0;;
64022;SDS011;50264;52.088;5.296;2022-10-30T06:37:12;14.4;;;8.71;;
64022;SDS011;50264;52.088;5.296;2022-10-30T06:40:24;18.0;;;8.9;;
64022;SDS011;50264;52.088;5.296;2022-10-30T06:43:38;18.0;;;9.21;;
64022;SDS011;50264;52.088;5.296;2022-10-30T06:45:15;16.9;;;7.8;;
64022;SDS011;50264;52.088;5.296;2022-10-30T06:46:53;12.2;;;8.71;;
64022;SDS011;50264;52.088;5.296;2022-10-30T06:50:07;13.3;;;8.31;;
64022;SDS011;50264;52.088;5.296;2022-10-30T06:51:45;21.4;;;8.6;;
64022;SDS011;50264;52.088;5.296;2022-10-30T06:53:22;21.3;;;9.0;;
64022;SDS011;50264;52.088;5.296;2022-10-30T06:55:00;16.3;;;8.31;;
64022;SDS011;50264;52.088;5.296;2022-10-30T06:58:13;16.3;;;8.31;;
64022;SDS011;50264;52.088;5.296;2022-10-30T06:59:49;24.7;;;8.9;;
64022;SDS011;50264;52.088;5.296;2022-10-30T07:01:25;19.2;;;10.0;;
64022;SDS011;50264;52.088;5.296;2022-10-30T07:04:39;19.5;;;9.4;;
64022;SDS011;50264;52.088;5.296;2022-10-30T07:06:16;19.11;;;8.71;;
64022;SDS011;50264;52.088;5.296;2022-10-30T07:07:54;17.2;;;9.1;;
64022;SDS011;50264;52.088;5.296;2022-10-30T07:09:31;18.5;;;9.6;;
64022;SDS011;50264;52.088;5.296;2022-10-30T07:12:52;16.0;;;8.71;;
64022;SDS011;50264;52.088;5.296;2022-10-30T07:14:29;19.5;;;9.4;;
64022;SDS011;50264;52.088;5.296;2022-10-30T07:16:06;15.2;;;8.71;;
64022;SDS011;50264;52.088;5.296;2022-10-30T07:19:27;17.3;;;9.4;;
64022;SDS011;50264;52.088;5.296;2022-10-30T07:21:03;21.5;;;8.31;;
64022;SDS011;50264;52.088;5.296;2022-10-30T07:22:40;18.11;;;9.5;;
64022;SDS011;50264;52.088;5.296;2022-10-30T07:24:16;16.9;;;9.71;;
64022;SDS011;50264;52.088;5.296;2022-10-30T07:27:31;17.11;;;10.0;;
64022;SDS011;50264;52.088;5.296;2022-10-30T07:29:07;18.41;;;9.31;;
64022;SDS011;50264;52.088;5.296;2022-10-30T07:30:43;19.2;;;9.4;;
64022;SDS011;50264;52.088;5.296;2022-10-30T07:33:55;16.9;;;10.4;;
64022;SDS011;50264;52.088;5.296;2022-10-30T07:35:34;21.6;;;10.3;;
64022;SDS011;50264;52.088;5.296;2022-10-30T07:37:11;17.5;;;9.9;;
64022;SDS011;50264;52.088;5.296;2022-10-30T07:38:48;20.3;;;9.31;;
64022;SDS011;50264;52.088;5.296;2022-10-30T07:42:01;17.0;;;9.4;;
64022;SDS011;50264;52.088;5.296;2022-10-30T07:43:38;21.6;;;10.0;;
64022;SDS011;50264;52.088;5.296;2022-10-30T07:45:16;21.9;;;10.4;;
64022;SDS011;50264;52.088;5.296;2022-10-30T07:48:28;29.6;;;9.9;;
64022;SDS011;50264;52.088;5.296;2022-10-30T07:50:04;24.9;;;10.21;;
64022;SDS011;50264;52.088;5.296;2022-10-30T07:51:41;20.0;;;10.0;;
64022;SDS011;50264;52.088;5.296;2022-10-30T07:54:54;16.9;;;9.9;;
64022;SDS011;50264;52.088;5.296;2022-10-30T07:56:30;18.7;;;10.0;;
64022;SDS011;50264;52.088;5.296;2022-10-30T07:58:07;16.61;;;9.9;;
64022;SDS011;50264;52.088;5.296;2022-10-30T07:59:43;21.0;;;10.1;;
64022;SDS011;50264;52.088;5.296;2022-10-30T08:02:57;18.2;;;9.9;;
64022;SDS011;50264;52.088;5.296;2022-10-30T08:04:34;16.8;;;10.3;;
64022;SDS011;50264;52.088;5.296;2022-10-30T08:06:10;27.8;;;10.7;;
64022;SDS011;50264;52.088;5.296;2022-10-30T08:09:23;20.7;;;10.1;;
64022;SDS011;50264;52.088;5.296;2022-10-30T08:10:59;16.11;;;8.81;;
64022;SDS011;50264;52.088;5.296;2022-10-30T08:12:38;16.9;;;8.31;;
64022;SDS011;50264;52.088;5.296;2022-10-30T08:15:51;16.9;;;8.31;;
64022;SDS011;50264;52.088;5.296;2022-10-30T08:17:27;14.9;;;8.4;;
64022;SDS011;50264;52.088;5.296;2022-10-30T08:19:03;19.41;;;9.31;;
64022;SDS011;50264;52.088;5.296;2022-10-30T08:20:40;15.0;;;8.4;;
64022;SDS011;50264;52.088;5.296;2022-10-30T08:23:54;21.6;;;8.9;;
64022;SDS011;50264;52.088;5.296;2022-10-30T08:25:30;16.8;;;8.81;;
64022;SDS011;50264;52.088;5.296;2022-10-30T08:27:06;13.6;;;7.9;;
64022;SDS011;50264;52.088;5.296;2022-10-30T08:30:20;11.4;;;8.2;;
64022;SDS011;50264;52.088;5.296;2022-10-30T08:31:56;16.7;;;8.71;;
64022;SDS011;50264;52.088;5.296;2022-10-30T08:33:33;18.41;;;9.21;;
64022;SDS011;50264;52.088;5.296;2022-10-30T08:36:49;16.61;;;8.6;;
64022;SDS011;50264;52.088;5.296;2022-10-30T08:38:26;15.1;;;8.9;;
64022;SDS011;50264;52.088;5.296;2022-10-30T08:40:04;16.5;;;9.0;;
64022;SDS011;50264;52.088;5.296;2022-10-30T08:41:41;17.11;;;9.5;;
64022;SDS011;50264;52.088;5.296;2022-10-30T08:44:55;25.3;;;10.21;;
64022;SDS011;50264;52.088;5.296;2022-10-30T08:46:31;14.3;;;9.1;;
64022;SDS011;50264;52.088;5.296;2022-10-30T08:48:09;20.7;;;9.21;;
64022;SDS011;50264;52.088;5.296;2022-10-30T08:51:22;17.11;;;9.1;;
64022;SDS011;50264;52.088;5.296;2022-10-30T08:52:59;17.5;;;9.5;;
64022;SDS011;50264;52.088;5.296;2022-10-30T08:54:38;16.2;;;8.1;;
64022;SDS011;50264;52.088;5.296;2022-10-30T08:56:14;20.2;;;10.8;;
64022;SDS011;50264;52.088;5.296;2022-10-30T08:59:27;19.0;;;8.2;;
64022;SDS011;50264;52.088;5.296;2022-10-30T09:01:03;16.4;;;9.9;;
64022;SDS011;50264;52.088;5.296;2022-10-30T09:02:41;16.11;;;9.71;;
64022;SDS011;50264;52.088;5.296;2022-10-30T09:05:53;23.4;;;12.2;;
64022;SDS011;50264;52.088;5.296;2022-10-30T09:07:30;18.91;;;9.21;;
64022;SDS011;50264;52.088;5.296;2022-10-30T09:09:06;16.3;;;9.81;;
64022;SDS011;50264;52.088;5.296;2022-10-30T09:12:18;23.4;;;10.8;;
64022;SDS011;50264;52.088;5.296;2022-10-30T09:13:56;24.6;;;11.6;;
64022;SDS011;50264;52.088;5.296;2022-10-30T09:15:32;21.5;;;11.2;;
64022;SDS011;50264;52.088;5.296;2022-10-30T09:17:08;22.2;;;9.81;;
64022;SDS011;50264;52.088;5.296;2022-10-30T09:20:21;14.9;;;9.4;;
64022;SDS011;50264;52.088;5.296;2022-10-30T09:21:58;13.9;;;8.5;;
64022;SDS011;50264;52.088;5.296;2022-10-30T09:23:35;14.3;;;8.1;;
64022;SDS011;50264;52.088;5.296;2022-10-30T09:26:48;18.61;;;8.31;;
64022;SDS011;50264;52.088;5.296;2022-10-30T09:28:24;17.11;;;8.5;;
64022;SDS011;50264;52.088;5.296;2022-10-30T09:30:00;14.8;;;9.31;;
64022;SDS011;50264;52.088;5.296;2022-10-30T09:33:14;18.61;;;10.7;;
64022;SDS011;50264;52.088;5.296;2022-10-30T09:34:50;20.3;;;10.21;;
64022;SDS011;50264;52.088;5.296;2022-10-30T09:36:26;25.0;;;10.9;;
64022;SDS011;50264;52.088;5.296;2022-10-30T09:38:02;22.2;;;10.5;;
64022;SDS011;50264;52.088;5.296;2022-10-30T09:41:25;15.6;;;9.9;;
64022;SDS011;50264;52.088;5.296;2022-10-30T09:43:19;15.5;;;9.5;;
64022;SDS011;50264;52.088;5.296;2022-10-30T09:45:18;17.11;;;10.5;;
64022;SDS011;50264;52.088;5.296;2022-10-30T09:48:04;17.61;;;9.71;;
64022;SDS011;50264;52.088;5.296;2022-10-30T09:50:18;18.0;;;10.4;;
64022;SDS011;50264;52.088;5.296;2022-10-30T09:52:04;16.3;;;9.6;;
64022;SDS011;50264;52.088;5.296;2022-10-30T09:53:55;16.9;;;9.4;;
64022;SDS011;50264;52.088;5.296;2022-10-30T09:55:49;21.1;;;9.6;;
64022;SDS011;50264;52.088;5.296;2022-10-30T09:57:34;14.1;;;8.71;;
64022;SDS011;50264;52.088;5.296;2022-10-30T09:59:23;27.4;;;10.7;;
64022;SDS011;50264;52.088;5.296;2022-10-30T10:01:14;25.0;;;11.0;;
64022;SDS011;50264;52.088;5.296;2022-10-30T10:04:53;16.3;;;10.21;;
64022;SDS011;50264;52.088;5.296;2022-10-30T10:06:35;22.1;;;10.3;;
64022;SDS011;50264;52.088;5.296;2022-10-30T10:08:20;20.5;;;9.0;;
64022;SDS011;50264;52.088;5.296;2022-10-30T10:10:03;19.0;;;9.1;;
64022;SDS011;50264;52.088;5.296;2022-10-30T10:11:44;20.3;;;10.4;;
64022;SDS011;50264;52.088;5.296;2022-10-30T10:15:13;21.9;;;10.9;;
64022;SDS011;50264;52.088;5.296;2022-10-30T10:17:09;18.8;;;10.7;;
64022;SDS011;50264;52.088;5.296;2022-10-30T10:18:54;22.7;;;8.9;;
64022;SDS011;50264;52.088;5.296;2022-10-30T10:20:42;17.11;;;10.5;;
64022;SDS011;50264;52.088;5.296;2022-10-30T10:22:23;28.3;;;11.2;;
64022;SDS011;50264;52.088;5.296;2022-10-30T10:24:08;22.3;;;10.8;;
64022;SDS011;50264;52.088;5.296;2022-10-30T10:27:38;21.2;;;10.21;;
64022;SDS011;50264;52.088;5.296;2022-10-30T10:29:32;23.5;;;10.9;;
64022;SDS011;50264;52.088;5.296;2022-10-30T10:31:23;18.61;;;9.6;;
64022;SDS011;50264;52.088;5.296;2022-10-30T10:33:33;21.0;;;10.21;;
64022;SDS011;50264;52.088;5.296;2022-10-30T10:35:30;19.2;;;9.71;;
64022;SDS011;50264;52.088;5.296;2022-10-30T10:38:11;16.8;;;10.1;;
64022;SDS011;50264;52.088;5.296;2022-10-30T10:40:05;22.3;;;10.21;;
64022;SDS011;50264;52.088;5.296;2022-10-30T10:41:57;19.91;;;8.71;;
64022;SDS011;50264;52.088;5.296;2022-10-30T10:43:50;21.2;;;10.4;;
64022;SDS011;50264;52.088;5.296;2022-10-30T10:45:42;15.2;;;8.6;;
64022;SDS011;50264;52.088;5.296;2022-10-30T10:47:35;19.41;;;9.9;;
64022;SDS011;50264;52.088;5.296;2022-10-30T10:49:32;19.5;;;8.9;;
64022;SDS011;50264;52.088;5.296;2022-10-30T10:51:21;16.61;;;8.6;;
64022;SDS011;50264;52.088;5.296;2022-10-30T10:54:51;16.2;;;8.9;;
64022;SDS011;50264;52.088;5.296;2022-10-30T10:56:33;21.0;;;9.21;;
64022;SDS011;50264;52.088;5.296;2022-10-30T10:58:21;18.41;;;9.71;;
64022;SDS011;50264;52.088;5.296;2022-10-30T11:00:12;18.7;;;8.9;;
64022;SDS011;50264;52.088;5.296;2022-10-30T11:01:54;15.0;;;8.6;;
64022;SDS011;50264;52.088;5.296;2022-10-30T11:05:26;22.1;;;9.21;;
64022;SDS011;50264;52.088;5.296;2022-10-30T11:07:11;24.2;;;9.4;;
64022;SDS011;50264;52.088;5.296;2022-10-30T11:08:57;15.2;;;8.5;;
64022;SDS011;50264;52.088;5.296;2022-10-30T11:10:47;16.61;;;8.81;;
64022;SDS011;50264;52.088;5.296;2022-10-30T11:12:33;16.0;;;8.71;;
64022;SDS011;50264;52.088;5.296;2022-10-30T11:15:53;16.11;;;8.31;;
64022;SDS011;50264;52.088;5.296;2022-10-30T11:17:40;19.8;;;10.0;;
64022;SDS011;50264;52.088;5.296;2022-10-30T11:21:08;19.3;;;9.71;;
64022;SDS011;50264;52.088;5.296;2022-10-30T11:22:48;20.7;;;9.21;;
64022;SDS011;50264;52.088;5.296;2022-10-30T11:26:25;24.1;;;9.1;;
64022;SDS011;50264;52.088;5.296;2022-10-30T11:28:30;21.5;;;9.9;;
64022;SDS011;50264;52.088;5.296;2022-10-30T11:30:17;24.7;;;8.9;;
64022;SDS011;50264;52.088;5.296;2022-10-30T11:31:58;15.9;;;8.81;;
64022;SDS011;50264;52.088;5.296;2022-10-30T11:33:36;16.9;;;9.6;;
64022;SDS011;50264;52.088;5.296;2022-10-30T11:35:13;20.2;;;9.21;;
64022;SDS011;50264;52.088;5.296;2022-10-30T11:38:29;14.7;;;8.0;;
64022;SDS011;50264;52.088;5.296;2022-10-30T11:40:11;16.9;;;9.5;;
64022;SDS011;50264;52.088;5.296;2022-10-30T11:41:56;17.5;;;9.4;;
64022;SDS011;50264;52.088;5.296;2022-10-30T11:43:36;27.4;;;9.6;;
64022;SDS011;50264;52.088;5.296;2022-10-30T11:46:58;17.61;;;8.31;;
64022;SDS011;50264;52.088;5.296;2022-10-30T11:48:36;14.6;;;8.81;;
64022;SDS011;50264;52.088;5.296;2022-10-30T11:50:16;12.6;;;8.0;;
64022;SDS011;50264;52.088;5.296;2022-10-30T11:51:55;16.7;;;9.31;;
64022;SDS011;50264;52.088;5.296;2022-10-30T11:55:15;19.61;;;8.71;;
64022;SDS011;50264;52.088;5.296;2022-10-30T11:56:55;22.4;;;9.1;;
64022;SDS011;50264;52.088;5.296;2022-10-30T11:58:34;16.9;;;9.1;;
64022;SDS011;50264;52.088;5.296;2022-10-30T12:01:56;17.61;;;8.71;;
64022;SDS011;50264;52.088;5.296;2022-10-30T12:03:36;17.5;;;9.0;;
64022;SDS011;50264;52.088;5.296;2022-10-30T12:05:28;22.5;;;8.4;;
64022;SDS011;50264;52.088;5.296;2022-10-30T12:07:16;21.2;;;8.81;;
64022;SDS011;50264;52.088;5.296;2022-10-30T12:09:00;26.1;;;10.6;;
64022;SDS011;50264;52.088;5.296;2022-10-30T12:12:22;16.5;;;8.71;;
64022;SDS011;50264;52.088;5.296;2022-10-30T12:14:02;17.41;;;8.5;;
64022;SDS011;50264;52.088;5.296;2022-10-30T12:15:39;12.6;;;6.7;;
64022;SDS011;50264;52.088;5.296;2022-10-30T12:17:19;18.91;;;8.31;;
64022;SDS011;50264;52.088;5.296;2022-10-30T12:20:37;13.2;;;8.1;;
64022;SDS011;50264;52.088;5.296;2022-10-30T12:22:27;17.7;;;8.1;;
64022;SDS011;50264;52.088;5.296;2022-10-30T12:24:11;16.5;;;8.4;;
64022;SDS011;50264;52.088;5.296;2022-10-30T12:25:53;18.61;;;8.71;;
64022;SDS011;50264;52.088;5.296;2022-10-30T12:27:33;13.0;;;7.6;;
64022;SDS011;50264;52.088;5.296;2022-10-30T12:30:53;17.5;;;8.71;;
64022;SDS011;50264;52.088;5.296;2022-10-30T12:32:40;12.8;;;7.9;;
64022;SDS011;50264;52.088;5.296;2022-10-30T12:34:26;16.2;;;7.9;;
64022;SDS011;50264;52.088;5.296;2022-10-30T12:36:12;17.41;;;8.9;;
64022;SDS011;50264;52.088;5.296;2022-10-30T12:39:30;15.4;;;8.31;;
64022;SDS011;50264;52.088;5.296;2022-10-30T12:41:24;14.5;;;8.2;;
64022;SDS011;50264;52.088;5.296;2022-10-30T12:43:08;15.0;;;7.9;;
64022;SDS011;50264;52.088;5.296;2022-10-30T12:44:54;13.7;;;7.3;;
64022;SDS011;50264;52.088;5.296;2022-10-30T12:46:49;17.5;;;8.0;;
64022;SDS011;50264;52.088;5.296;2022-10-30T12:48:31;17.41;;;7.8;;